Time;durP1;ratioP1;P1;durP2;ratioP2;P2;SDS_P1;SDS_P2;PMS_P1;PMS_P2;Temp;Humidity;BMP_temperature;BMP_pressure;BME280_temperature;BME280_humidity;BME280_pressure;Samples;Min_cycle;Max_cycle;Signal;HPM_P1;HPM_P2
2023/09/04 00:00:38;;;;;;;7.00;3.90;;;12.50;99.90;;;;;;7353445;32;20099;-55
2023/09/04 00:04:40;;;;;;;8.23;4.00;;;12.40;99.90;;;;;;7342025;32;20235;-55
2023/09/04 00:08:43;;;;;;;6.40;4.07;;;12.40;99.90;;;;;;7348316;32;20546;-54
2023/09/04 00:12:44;;;;;;;6.07;4.05;;;12.30;99.90;;;;;;7342931;32;20122;-56
2023/09/04 00:16:46;;;;;;;6.22;3.78;;;12.30;99.90;;;;;;7346221;32;20171;-55
2023/09/04 00:20:48;;;;;;;10.40;4.00;;;12.20;99.90;;;;;;7349976;32;20151;-55
2023/09/04 00:24:50;;;;;;;4.90;3.53;;;12.10;99.90;;;;;;7336785;32;20183;-55
2023/09/04 00:28:51;;;;;;;7.72;4.12;;;12.10;99.90;;;;;;7354649;32;20234;-55
2023/09/04 00:32:53;;;;;;;6.87;4.60;;;12.00;99.90;;;;;;7350706;32;20220;-55
2023/09/04 00:36:55;;;;;;;7.72;3.90;;;12.00;99.90;;;;;;7342667;32;20116;-56
2023/09/04 00:40:57;;;;;;;5.35;3.70;;;12.10;99.90;;;;;;7349645;32;20314;-54
2023/09/04 00:44:58;;;;;;;6.07;3.55;;;12.00;99.90;;;;;;7346800;32;20272;-54
2023/09/04 00:49:01;;;;;;;7.68;3.50;;;11.90;99.90;;;;;;7353665;32;20098;-55
2023/09/04 00:53:05;;;;;;;4.47;3.25;;;11.90;99.90;;;;;;7356427;32;20584;-55
2023/09/04 00:57:07;;;;;;;8.93;3.87;;;11.90;99.90;;;;;;7339428;32;20100;-55
2023/09/04 01:01:09;;;;;;;8.18;3.70;;;11.80;99.90;;;;;;7346001;32;20176;-55
2023/09/04 01:05:11;;;;;;;6.07;3.62;;;11.70;99.90;;;;;;7349263;32;20099;-56
2023/09/04 01:09:13;;;;;;;6.72;3.70;;;11.70;99.90;;;;;;7340882;32;20119;-54
2023/09/04 01:13:20;;;;;;;7.40;3.87;;;11.70;99.90;;;;;;7340509;32;20369;-56
2023/09/04 01:17:23;;;;;;;6.07;3.53;;;11.60;99.90;;;;;;7347345;32;20099;-55
2023/09/04 01:21:25;;;;;;;8.93;3.60;;;11.60;99.90;;;;;;7339802;32;20130;-56
2023/09/04 01:25:43;;;;;;;5.53;3.72;;;11.60;99.90;;;;;;7343788;32;20671;-55
2023/09/04 01:29:56;;;;;;;;;;;11.50;99.90;;;;;;7350555;32;20103;-55
2023/09/04 01:34:22;;;;;;;9.88;3.58;;;11.40;99.90;;;;;;7345492;32;20396;-57
2023/09/04 01:38:24;;;;;;;3.78;2.83;;;11.50;99.90;;;;;;7339931;32;20259;-56
2023/09/04 01:42:26;;;;;;;5.90;3.65;;;11.40;99.90;;;;;;7342231;32;20095;-55
2023/09/04 01:46:28;;;;;;;7.32;3.53;;;11.40;99.90;;;;;;7341565;32;20177;-55
2023/09/04 01:50:29;;;;;;;11.02;3.87;;;11.40;99.90;;;;;;7333469;32;20123;-56
2023/09/04 01:54:31;;;;;;;4.95;3.15;;;11.40;99.90;;;;;;7347187;32;20246;-55
2023/09/04 01:58:33;;;;;;;7.78;3.22;;;11.50;99.90;;;;;;7346709;32;20114;-56
2023/09/04 02:02:35;;;;;;;5.85;3.50;;;11.40;99.90;;;;;;7344247;32;20525;-57
2023/09/04 02:06:37;;;;;;;6.68;3.58;;;11.30;99.90;;;;;;7355508;32;20096;-55
2023/09/04 02:10:38;;;;;;;10.93;4.18;;;11.30;99.90;;;;;;7353504;32;20160;-55
2023/09/04 02:14:40;;;;;;;4.75;3.30;;;11.30;99.90;;;;;;7355403;32;20518;-55
2023/09/04 02:18:43;;;;;;;6.82;3.70;;;11.20;99.90;;;;;;7353617;32;20115;-54
2023/09/04 02:22:44;;;;;;;8.98;3.70;;;11.20;99.90;;;;;;7348073;32;20161;-55
2023/09/04 02:26:46;;;;;;;9.15;3.67;;;11.20;99.90;;;;;;7357222;32;20179;-55
2023/09/04 02:30:48;;;;;;;5.55;2.83;;;11.20;99.90;;;;;;7361556;32;20167;-55
2023/09/04 02:34:49;;;;;;;5.37;3.42;;;11.20;99.90;;;;;;7353547;32;20108;-55
2023/09/04 02:38:51;;;;;;;6.90;3.58;;;11.20;99.90;;;;;;7355502;32;20134;-55
2023/09/04 02:42:53;;;;;;;7.22;3.87;;;11.10;99.90;;;;;;7348613;32;20099;-55
2023/09/04 02:46:55;;;;;;;6.93;3.75;;;11.10;99.90;;;;;;7354365;32;20541;-56
2023/09/04 02:51:00;;;;;;;5.45;3.05;;;11.10;99.90;;;;;;7355921;32;20592;-56
2023/09/04 02:55:03;;;;;;;5.87;3.35;;;11.10;99.90;;;;;;7352386;32;20156;-56
2023/09/04 02:59:04;;;;;;;8.32;3.40;;;11.10;99.90;;;;;;7347241;32;20125;-56
2023/09/04 03:03:07;;;;;;;12.50;4.07;;;11.10;99.90;;;;;;7354415;32;20107;-55
2023/09/04 03:07:09;;;;;;;6.62;2.92;;;11.10;99.90;;;;;;7343664;32;20166;-56
2023/09/04 03:11:11;;;;;;;6.68;3.65;;;11.00;99.90;;;;;;7345271;32;20200;-56
2023/09/04 03:15:12;;;;;;;4.37;3.20;;;10.90;99.90;;;;;;7341708;32;20582;-55
2023/09/04 03:19:14;;;;;;;7.07;3.30;;;11.00;99.90;;;;;;7343846;32;20092;-57
2023/09/04 03:23:16;;;;;;;8.10;3.40;;;10.90;99.90;;;;;;7355277;32;20154;-56
2023/09/04 03:27:18;;;;;;;12.07;4.57;;;10.90;99.90;;;;;;7352651;32;20219;-55
2023/09/04 03:31:20;;;;;;;8.63;4.10;;;10.90;99.90;;;;;;7348613;32;20222;-55
2023/09/04 03:35:21;;;;;;;5.62;3.72;;;10.80;99.90;;;;;;7349292;32;20115;-55
2023/09/04 03:39:24;;;;;;;8.10;3.17;;;10.90;99.90;;;;;;7351482;32;20144;-56
2023/09/04 03:43:28;;;;;;;7.82;3.60;;;10.80;99.90;;;;;;7348134;32;20119;-56
2023/09/04 03:47:30;;;;;;;9.15;4.18;;;10.80;99.90;;;;;;7349225;32;20122;-57
2023/09/04 03:51:31;;;;;;;6.18;3.90;;;10.70;99.90;;;;;;7346484;32;20096;-55
2023/09/04 03:55:33;;;;;;;6.70;3.50;;;10.80;99.90;;;;;;7349922;32;20802;-55
2023/09/04 03:59:35;;;;;;;6.55;3.40;;;10.70;99.90;;;;;;7349392;32;20508;-56
2023/09/04 04:03:36;;;;;;;7.20;3.47;;;10.70;99.90;;;;;;7343175;32;20107;-56
2023/09/04 04:07:39;;;;;;;6.18;3.60;;;10.60;99.90;;;;;;7352375;32;20130;-57
2023/09/04 04:11:40;;;;;;;4.45;3.25;;;10.70;99.90;;;;;;7342935;32;20107;-56
2023/09/04 04:15:43;;;;;;;6.22;3.12;;;10.50;99.90;;;;;;7343818;32;20129;-56
2023/09/04 04:19:44;;;;;;;4.95;3.30;;;10.50;99.90;;;;;;7352647;32;20190;-55
2023/09/04 04:23:46;;;;;;;5.78;3.12;;;10.40;99.90;;;;;;7354265;32;20691;-55
2023/09/04 04:27:48;;;;;;;6.12;3.62;;;10.40;99.90;;;;;;7347602;32;20221;-55
2023/09/04 04:31:50;;;;;;;5.53;3.10;;;10.40;99.90;;;;;;7340712;32;20245;-56
2023/09/04 04:35:55;;;;;;;10.45;3.30;;;10.40;99.90;;;;;;7344639;32;20139;-55
2023/09/04 04:39:57;;;;;;;6.65;3.28;;;10.30;99.90;;;;;;7346965;32;20184;-55
2023/09/04 04:43:58;;;;;;;6.75;2.95;;;10.30;99.90;;;;;;7353630;32;20159;-55
2023/09/04 04:48:01;;;;;;;5.57;3.60;;;10.20;99.90;;;;;;7345048;32;20248;-57
2023/09/04 04:52:03;;;;;;;4.90;3.20;;;10.30;99.90;;;;;;7348008;32;20112;-57
2023/09/04 04:56:05;;;;;;;5.05;3.53;;;10.20;99.90;;;;;;7344892;32;20261;-56
2023/09/04 05:00:07;;;;;;;5.40;3.30;;;10.20;99.90;;;;;;7329345;32;20123;-55
2023/09/04 05:04:09;;;;;;;4.28;3.10;;;10.20;99.90;;;;;;7336271;32;20103;-55
2023/09/04 05:08:11;;;;;;;7.32;3.90;;;10.30;99.90;;;;;;7340440;32;20133;-56
2023/09/04 05:12:13;;;;;;;4.97;3.10;;;10.30;99.90;;;;;;7332023;32;20570;-56
2023/09/04 05:16:14;;;;;;;7.00;3.72;;;10.30;99.90;;;;;;7342154;32;20293;-56
2023/09/04 05:20:16;;;;;;;5.43;3.33;;;10.30;99.90;;;;;;7336788;32;22032;-55
2023/09/04 05:24:18;;;;;;;6.53;3.67;;;10.30;99.90;;;;;;7336527;32;20103;-56
2023/09/04 05:28:20;;;;;;;9.23;3.62;;;10.40;99.90;;;;;;7339487;32;20265;-56
2023/09/04 05:32:22;;;;;;;6.87;3.92;;;10.30;99.90;;;;;;7345421;32;20095;-56
2023/09/04 05:36:24;;;;;;;9.75;3.72;;;10.40;99.90;;;;;;7346034;32;20223;-56
2023/09/04 05:40:26;;;;;;;6.65;4.00;;;10.40;99.90;;;;;;7349615;32;20115;-56
2023/09/04 05:44:28;;;;;;;5.32;3.78;;;10.50;99.90;;;;;;7336746;32;20198;-57
2023/09/04 05:48:31;;;;;;;23.15;17.35;;;10.50;99.90;;;;;;7348509;32;22716;-56
2023/09/04 05:52:33;;;;;;;11.43;7.32;;;10.60;99.90;;;;;;7347851;32;20099;-56
2023/09/04 05:56:34;;;;;;;9.98;4.85;;;10.70;99.90;;;;;;7349385;32;20581;-56
2023/09/04 06:00:36;;;;;;;7.28;3.62;;;10.70;99.90;;;;;;7339229;32;20111;-57
2023/09/04 06:04:38;;;;;;;6.00;3.83;;;10.80;99.90;;;;;;7343741;32;20512;-56
2023/09/04 06:08:39;;;;;;;6.30;3.70;;;10.90;99.90;;;;;;7348635;32;20252;-57
2023/09/04 06:12:41;;;;;;;3.87;3.28;;;11.00;99.90;;;;;;7345018;32;20161;-57
2023/09/04 06:16:43;;;;;;;6.32;3.58;;;11.10;99.90;;;;;;7344526;32;20232;-56
2023/09/04 06:20:49;;;;;;;3.37;3.03;;;11.20;99.90;;;;;;7335005;32;20229;-56
2023/09/04 06:24:50;;;;;;;6.12;3.17;;;11.40;99.90;;;;;;7350729;32;20126;-57
2023/09/04 06:28:52;;;;;;;4.37;3.40;;;11.60;99.90;;;;;;7342551;32;20260;-57
2023/09/04 06:32:54;;;;;;;5.22;4.60;;;11.70;99.90;;;;;;7345657;32;20140;-57
2023/09/04 06:36:56;;;;;;;5.65;4.75;;;12.00;99.90;;;;;;7336707;32;20449;-56
2023/09/04 06:40:58;;;;;;;5.40;4.57;;;12.20;99.90;;;;;;7340887;32;20126;-56
2023/09/04 06:44:59;;;;;;;6.55;5.10;;;12.50;99.90;;;;;;7348105;32;20151;-56
2023/09/04 06:49:01;;;;;;;5.90;5.30;;;12.80;99.90;;;;;;7339179;32;20119;-57
2023/09/04 06:53:03;;;;;;;7.07;4.93;;;13.10;99.90;;;;;;7339302;32;20137;-56
2023/09/04 06:57:05;;;;;;;7.80;5.75;;;13.20;99.90;;;;;;7356088;32;20274;-56
2023/09/04 07:01:07;;;;;;;8.27;5.62;;;13.40;99.90;;;;;;7350025;32;20701;-56
2023/09/04 07:05:09;;;;;;;8.10;5.30;;;13.80;99.90;;;;;;7349412;32;20265;-56
2023/09/04 07:09:10;;;;;;;9.20;6.62;;;14.00;99.90;;;;;;7346644;32;20621;-57
2023/09/04 07:13:12;;;;;;;16.23;7.03;;;14.10;99.90;;;;;;7347506;32;20270;-56
2023/09/04 07:17:14;;;;;;;9.30;5.32;;;14.40;99.90;;;;;;7341006;32;20111;-57
2023/09/04 07:21:16;;;;;;;10.73;5.85;;;14.70;99.90;;;;;;7348939;32;20268;-57
2023/09/04 07:25:17;;;;;;;8.15;4.80;;;14.90;99.90;;;;;;7361272;32;20215;-56
2023/09/04 07:29:22;;;;;;;7.65;4.12;;;15.10;99.90;;;;;;7342403;32;20106;-56
2023/09/04 07:33:24;;;;;;;6.72;3.97;;;15.50;99.90;;;;;;7351635;32;20235;-57
2023/09/04 07:37:27;;;;;;;9.85;4.35;;;15.60;99.90;;;;;;7351514;32;20202;-56
2023/09/04 07:41:30;;;;;;;6.18;4.30;;;15.80;99.90;;;;;;7349453;32;20091;-56
2023/09/04 07:45:32;;;;;;;9.30;4.15;;;15.90;99.90;;;;;;7350198;32;20133;-57
2023/09/04 07:49:33;;;;;;;5.03;3.67;;;16.00;99.90;;;;;;7353873;32;20104;-56
2023/09/04 07:53:35;;;;;;;5.03;2.35;;;16.20;99.90;;;;;;7345527;32;20134;-56
2023/09/04 07:57:37;;;;;;;4.45;2.40;;;16.40;99.90;;;;;;7343098;32;20098;-56
2023/09/04 08:01:39;;;;;;;5.85;2.10;;;16.60;99.90;;;;;;7352218;32;20140;-55
2023/09/04 08:05:41;;;;;;;3.92;1.95;;;16.70;99.90;;;;;;7353310;32;20236;-56
2023/09/04 08:09:43;;;;;;;2.22;1.87;;;16.90;99.90;;;;;;7351390;32;20095;-56
2023/09/04 08:13:44;;;;;;;2.30;1.70;;;17.10;99.90;;;;;;7350819;32;20313;-56
2023/09/04 08:17:47;;;;;;;2.67;1.80;;;17.30;99.90;;;;;;7347194;32;20990;-56
2023/09/04 08:21:49;;;;;;;2.25;1.80;;;17.50;99.90;;;;;;7352562;32;20193;-56
2023/09/04 08:25:58;;;;;;;2.67;1.60;;;17.80;99.90;;;;;;7364870;32;20178;-57
2023/09/04 08:30:00;;;;;;;4.45;1.80;;;18.10;99.90;;;;;;7350846;32;20786;-57
2023/09/04 08:34:02;;;;;;;3.33;2.15;;;18.30;99.90;;;;;;7355091;32;20126;-57
2023/09/04 08:38:06;;;;;;;3.50;1.85;;;18.60;99.90;;;;;;7346118;32;20118;-56
2023/09/04 08:42:10;;;;;;;1.80;1.40;;;18.80;99.90;;;;;;7349939;32;20130;-56
2023/09/04 08:46:15;;;;;;;2.50;1.30;;;19.10;99.90;;;;;;7359847;32;20136;-55
2023/09/04 08:50:19;;;;;;;2.97;1.70;;;19.30;99.90;;;;;;7336379;32;20258;-58
2023/09/04 08:54:22;;;;;;;3.45;2.28;;;19.60;99.90;;;;;;7344492;32;20206;-56
2023/09/04 08:58:25;;;;;;;2.83;1.60;;;19.80;99.90;;;;;;7353241;32;20107;-56
2023/09/04 09:02:28;;;;;;;2.33;1.50;;;20.10;99.90;;;;;;7343162;32;20232;-57
2023/09/04 09:06:30;;;;;;;2.53;1.62;;;20.40;99.90;;;;;;7351463;32;20099;-57
2023/09/04 09:10:33;;;;;;;3.05;1.98;;;20.50;99.90;;;;;;7354521;32;20172;-57
2023/09/04 09:14:34;;;;;;;2.37;1.48;;;20.80;99.90;;;;;;7350639;32;20311;-57
2023/09/04 09:18:38;;;;;;;2.95;1.55;;;21.10;99.90;;;;;;7352646;32;20463;-57
2023/09/04 09:22:50;;;;;;;3.95;1.70;;;21.90;99.90;;;;;;7336795;32;20581;-58
2023/09/04 09:26:51;;;;;;;1.87;1.40;;;22.70;99.90;;;;;;7328383;32;20266;-57
2023/09/04 09:30:54;;;;;;;2.40;1.35;;;22.70;99.90;;;;;;7333395;32;20190;-56
2023/09/04 09:34:58;;;;;;;2.15;1.70;;;22.70;99.90;;;;;;7329819;32;20588;-57
2023/09/04 09:38:59;;;;;;;2.20;1.42;;;22.90;99.90;;;;;;7338915;32;20521;-57
2023/09/04 09:43:01;;;;;;;2.10;1.33;;;23.60;99.90;;;;;;7339868;32;20194;-57
2023/09/04 09:47:07;;;;;;;3.25;1.60;;;24.90;99.90;;;;;;7332460;32;20197;-57
2023/09/04 09:51:10;;;;;;;2.03;1.27;;;26.80;99.90;;;;;;7336337;32;20174;-58
2023/09/04 09:55:24;;;;;;;2.92;1.40;;;28.50;99.90;;;;;;7332302;32;20251;-58
2023/09/04 09:59:28;;;;;;;3.33;1.30;;;28.90;99.90;;;;;;7337150;32;20121;-58
2023/09/04 10:03:31;;;;;;;2.53;1.55;;;29.50;99.90;;;;;;7336695;32;20205;-58
2023/09/04 10:07:34;;;;;;;2.80;1.30;;;29.90;92.80;;;;;;7337645;32;20174;-58
2023/09/04 10:11:40;;;;;;;3.17;1.27;;;29.80;92.80;;;;;;7334941;32;20777;-58
2023/09/04 10:15:44;;;;;;;;;;;29.60;92.70;;;;;;7334755;32;20296;-58
2023/09/04 10:19:48;;;;;;;2.50;1.60;;;30.70;97.40;;;;;;7340226;32;20105;-57
2023/09/04 10:23:59;;;;;;;3.35;1.30;;;31.20;94.70;;;;;;7344906;32;20209;-59
2023/09/04 10:28:21;;;;;;;2.35;1.37;;;31.30;93.90;;;;;;7342719;32;20252;-56
2023/09/04 10:32:38;;;;;;;2.08;1.37;;;30.30;86.50;;;;;;7342942;32;20257;-57
2023/09/04 10:36:40;;;;;;;4.07;1.40;;;29.40;89.40;;;;;;7343505;32;20181;-58
2023/09/04 10:40:42;;;;;;;3.20;1.20;;;29.70;92.20;;;;;;7344462;32;20245;-57
2023/09/04 10:44:49;;;;;;;2.00;1.00;;;29.40;86.50;;;;;;7343948;32;20095;-57
2023/09/04 10:48:52;;;;;;;2.30;1.30;;;27.80;88.50;;;;;;7350007;32;20517;-57
2023/09/04 10:53:00;;;;;;;1.90;1.05;;;28.80;91.40;;;;;;7350615;32;20126;-57
2023/09/04 10:57:05;;;;;;;4.28;1.70;;;29.10;92.00;;;;;;7346232;32;20119;-57
2023/09/04 11:01:31;;;;;;;2.72;1.23;;;26.70;90.80;;;;;;7350220;32;20324;-57
2023/09/04 11:06:02;;;;;;;5.30;1.40;;;27.30;94.30;;;;;;7350565;32;20161;-56
2023/09/04 11:10:07;;;;;;;2.20;1.10;;;26.50;93.60;;;;;;7348030;32;20108;-57
2023/09/04 11:14:12;;;;;;;4.97;1.95;;;27.60;93.90;;;;;;7349507;32;20612;-57
2023/09/04 11:18:14;;;;;;;2.47;1.30;;;28.10;94.20;;;;;;7349471;32;20091;-57
2023/09/04 11:22:19;;;;;;;4.03;1.45;;;28.30;94.80;;;;;;7350195;32;20464;-56
2023/09/04 11:26:21;;;;;;;2.53;1.30;;;27.50;93.60;;;;;;7348722;32;20147;-56
2023/09/04 11:30:25;;;;;;;1.92;1.37;;;26.70;94.40;;;;;;7345038;32;20174;-57
2023/09/04 11:34:28;;;;;;;4.65;1.40;;;25.80;95.20;;;;;;7350281;32;20529;-57
2023/09/04 11:38:31;;;;;;;2.87;1.40;;;26.00;96.20;;;;;;7343462;32;20119;-57
2023/09/04 11:42:33;;;;;;;2.17;1.40;;;25.50;93.80;;;;;;7350701;32;20503;-56
2023/09/04 11:46:35;;;;;;;2.05;1.48;;;25.80;97.60;;;;;;7337498;32;20126;-57
2023/09/04 11:50:37;;;;;;;3.28;1.70;;;26.00;95.40;;;;;;7328602;32;20218;-57
2023/09/04 11:54:40;;;;;;;2.50;1.35;;;26.20;95.10;;;;;;7336154;32;20123;-57
2023/09/04 11:58:42;;;;;;;3.47;1.42;;;26.10;94.00;;;;;;7349437;32;20172;-56
2023/09/04 12:02:44;;;;;;;4.05;1.55;;;26.10;95.10;;;;;;7353609;32;20110;-56
2023/09/04 12:06:46;;;;;;;4.12;1.60;;;26.00;97.90;;;;;;7345333;32;20119;-57
2023/09/04 12:10:50;;;;;;;2.87;1.50;;;25.90;94.40;;;;;;7347054;32;20209;-57
2023/09/04 12:14:52;;;;;;;3.62;1.20;;;25.80;97.30;;;;;;7351426;32;20121;-57
2023/09/04 12:18:54;;;;;;;2.17;1.30;;;25.90;93.50;;;;;;7351816;32;20236;-56
2023/09/04 12:22:57;;;;;;;2.85;1.33;;;25.80;96.40;;;;;;7347929;32;20114;-61
2023/09/04 12:26:58;;;;;;;2.10;1.37;;;25.50;94.20;;;;;;7350824;32;20107;-57
2023/09/04 12:31:01;;;;;;;3.20;1.40;;;25.60;97.40;;;;;;7345537;32;20251;-58
2023/09/04 12:35:04;;;;;;;2.28;1.37;;;25.80;96.80;;;;;;7347160;32;20497;-57
2023/09/04 12:39:05;;;;;;;5.72;1.73;;;26.10;98.80;;;;;;7328757;32;20201;-58
2023/09/04 12:43:08;;;;;;;2.35;1.50;;;26.30;99.00;;;;;;7341895;32;20190;-58
2023/09/04 12:47:10;;;;;;;3.53;1.40;;;26.50;97.00;;;;;;7337027;32;20186;-56
2023/09/04 12:51:12;;;;;;;6.18;1.65;;;26.40;97.40;;;;;;7348151;32;20119;-57
2023/09/04 12:55:14;;;;;;;4.47;1.95;;;26.40;97.90;;;;;;7346498;32;20122;-56
2023/09/04 12:59:16;;;;;;;3.22;1.90;;;26.70;97.70;;;;;;7350567;32;20133;-57
2023/09/04 13:03:18;;;;;;;5.20;1.20;;;26.70;96.10;;;;;;7348509;32;20218;-56
2023/09/04 13:07:19;;;;;;;2.62;1.50;;;27.10;96.80;;;;;;7349906;32;20116;-56
2023/09/04 13:11:22;;;;;;;4.10;1.48;;;27.20;95.40;;;;;;7348176;32;20126;-57
2023/09/04 13:15:24;;;;;;;2.65;1.70;;;27.30;97.60;;;;;;7341368;32;20226;-58
2023/09/04 13:19:26;;;;;;;2.55;1.50;;;27.50;96.40;;;;;;7340884;32;20217;-54
2023/09/04 13:23:27;;;;;;;3.30;1.20;;;27.70;94.30;;;;;;7346762;32;20096;-54
2023/09/04 13:27:29;;;;;;;2.22;1.35;;;27.50;95.80;;;;;;7344045;32;20322;-53
2023/09/04 13:31:31;;;;;;;3.90;1.40;;;27.60;94.20;;;;;;7342208;32;20107;-54
2023/09/04 13:35:32;;;;;;;4.70;1.58;;;27.20;92.80;;;;;;7343419;32;20679;-56
2023/09/04 13:39:34;;;;;;;2.30;1.33;;;27.00;92.00;;;;;;7341489;32;20115;-56
2023/09/04 13:43:36;;;;;;;2.10;1.20;;;27.10;93.90;;;;;;7338863;32;20103;-55
2023/09/04 13:47:38;;;;;;;3.03;1.50;;;27.20;91.30;;;;;;7337644;32;20185;-57
2023/09/04 13:51:39;;;;;;;2.45;1.33;;;27.20;92.40;;;;;;7342047;32;20230;-58
2023/09/04 13:55:41;;;;;;;4.40;1.30;;;27.10;87.90;;;;;;7333138;32;20217;-57
2023/09/04 13:59:43;;;;;;;6.57;1.60;;;27.10;91.60;;;;;;7343811;32;20191;-57
2023/09/04 14:03:45;;;;;;;2.55;1.20;;;27.40;91.70;;;;;;7334678;32;20335;-57
2023/09/04 14:07:47;;;;;;;2.47;1.45;;;27.50;91.70;;;;;;7331063;32;20183;-58
2023/09/04 14:11:49;;;;;;;4.93;1.50;;;27.70;90.60;;;;;;7333444;32;20209;-57
2023/09/04 14:15:51;;;;;;;3.00;1.35;;;27.50;88.30;;;;;;7331428;32;20260;-58
2023/09/04 14:19:53;;;;;;;1.87;1.27;;;27.90;90.50;;;;;;7339036;32;20209;-58
2023/09/04 14:23:55;;;;;;;4.10;1.20;;;27.70;87.20;;;;;;7337261;32;20128;-57
2023/09/04 14:27:57;;;;;;;4.55;1.30;;;27.50;88.00;;;;;;7340351;32;20186;-58
2023/09/04 14:31:59;;;;;;;4.75;1.62;;;27.60;88.50;;;;;;7336004;32;20181;-58
2023/09/04 14:36:00;;;;;;;3.37;1.20;;;27.40;88.00;;;;;;7334611;32;20352;-57
2023/09/04 14:40:03;;;;;;;2.55;1.15;;;27.10;87.70;;;;;;7341951;32;20179;-58
2023/09/04 14:44:05;;;;;;;3.97;1.33;;;27.20;90.20;;;;;;7336380;32;20186;-57
2023/09/04 14:48:07;;;;;;;4.85;1.20;;;27.50;92.80;;;;;;7337244;32;20303;-57
2023/09/04 14:52:09;;;;;;;3.00;1.40;;;27.30;91.00;;;;;;7338030;32;20250;-57
2023/09/04 14:56:11;;;;;;;2.80;1.30;;;27.30;90.10;;;;;;7341008;32;20251;-58
2023/09/04 15:00:13;;;;;;;1.83;1.17;;;27.20;91.20;;;;;;7338881;32;20206;-57
2023/09/04 15:04:14;;;;;;;2.17;1.60;;;26.60;88.80;;;;;;7341848;32;20190;-57
2023/09/04 15:08:16;;;;;;;4.37;1.17;;;26.30;90.00;;;;;;7331628;32;20190;-58
2023/09/04 15:12:18;;;;;;;2.62;1.40;;;26.40;90.40;;;;;;7342226;32;20237;-58
2023/09/04 15:16:20;;;;;;;3.28;1.20;;;26.20;90.40;;;;;;7335823;32;20217;-57
2023/09/04 15:20:23;;;;;;;2.25;1.50;;;25.90;89.90;;;;;;7340659;32;20238;-57
2023/09/04 15:24:24;;;;;;;2.75;1.27;;;25.90;91.80;;;;;;7341977;32;20216;-58
2023/09/04 15:28:27;;;;;;;3.28;1.27;;;25.70;91.40;;;;;;7334481;32;20210;-57
2023/09/04 15:32:29;;;;;;;2.08;1.48;;;25.60;90.60;;;;;;7346283;32;20167;-57
2023/09/04 15:36:31;;;;;;;2.45;1.40;;;25.50;90.50;;;;;;7350136;32;20387;-58
2023/09/04 15:40:34;;;;;;;2.30;1.35;;;25.40;91.30;;;;;;7343129;32;20202;-58
2023/09/04 15:44:36;;;;;;;4.32;1.50;;;25.50;92.20;;;;;;7337441;32;21020;-56
2023/09/04 15:48:37;;;;;;;4.70;1.45;;;25.40;92.40;;;;;;7333219;32;20143;-55
2023/09/04 15:52:39;;;;;;;6.07;1.37;;;25.20;90.30;;;;;;7332106;32;20112;-56
2023/09/04 15:56:41;;;;;;;3.75;1.10;;;25.20;91.30;;;;;;7334451;32;20358;-55
2023/09/04 16:00:43;;;;;;;3.05;1.12;;;25.10;91.30;;;;;;7327877;32;20114;-56
2023/09/04 16:04:44;;;;;;;3.10;1.40;;;25.10;92.10;;;;;;7337614;32;20150;-56
2023/09/04 16:08:46;;;;;;;4.43;1.27;;;25.10;92.40;;;;;;7335054;32;20217;-58
2023/09/04 16:12:48;;;;;;;3.95;1.08;;;25.20;93.80;;;;;;7340441;32;20135;-56
2023/09/04 16:16:50;;;;;;;4.00;1.70;;;25.00;93.30;;;;;;7337911;32;20167;-56
2023/09/04 16:20:52;;;;;;;3.20;1.35;;;24.90;93.10;;;;;;7332238;32;20242;-53
2023/09/04 16:24:57;;;;;;;2.22;1.30;;;24.90;93.70;;;;;;7335580;32;20183;-54
2023/09/04 16:28:59;;;;;;;4.35;1.20;;;24.90;93.40;;;;;;7334400;32;20574;-56
2023/09/04 16:33:02;;;;;;;3.22;1.15;;;24.90;93.70;;;;;;7332752;32;20194;-57
2023/09/04 16:37:04;;;;;;;2.70;1.00;;;24.90;94.20;;;;;;7328365;32;20179;-57
2023/09/04 16:41:06;;;;;;;2.75;1.40;;;24.90;97.80;;;;;;7336496;32;20257;-56
2023/09/04 16:45:08;;;;;;;3.72;1.62;;;24.60;98.00;;;;;;7332767;32;20257;-56
2023/09/04 16:49:10;;;;;;;4.85;3.70;;;24.60;99.90;;;;;;7332457;32;20226;-56
2023/09/04 16:53:12;;;;;;;3.92;1.30;;;24.40;97.70;;;;;;7318108;32;20216;-56
2023/09/04 16:57:15;;;;;;;3.78;1.27;;;24.40;98.40;;;;;;7316042;32;20209;-56
2023/09/04 17:01:17;;;;;;;2.90;1.40;;;24.30;99.90;;;;;;7319121;32;20314;-56
2023/09/04 17:05:19;;;;;;;2.05;1.15;;;24.30;99.90;;;;;;7319483;32;20222;-56
2023/09/04 17:09:21;;;;;;;5.10;1.73;;;24.20;99.90;;;;;;7321583;32;20366;-57
2023/09/04 17:13:23;;;;;;;1.92;1.30;;;23.90;99.90;;;;;;7318498;32;20592;-56
2023/09/04 17:17:25;;;;;;;2.85;1.35;;;23.50;99.90;;;;;;7321945;32;20209;-57
2023/09/04 17:21:27;;;;;;;3.17;1.27;;;23.40;99.90;;;;;;7323395;32;20815;-56
2023/09/04 17:25:29;;;;;;;1.92;1.48;;;23.20;99.90;;;;;;7325690;32;20119;-56
2023/09/04 17:29:30;;;;;;;4.53;1.37;;;22.90;99.90;;;;;;7319558;32;20191;-57
2023/09/04 17:33:33;;;;;;;2.67;1.60;;;22.60;99.90;;;;;;7329128;32;20271;-56
2023/09/04 17:37:34;;;;;;;5.10;1.73;;;22.30;99.90;;;;;;7343728;32;20114;-56
2023/09/04 17:41:36;;;;;;;4.65;1.50;;;22.10;99.90;;;;;;7339920;32;20096;-57
2023/09/04 17:45:46;;;;;;;2.30;1.23;;;21.90;99.90;;;;;;7326677;32;20194;-57
2023/09/04 17:49:48;;;;;;;6.68;1.33;;;21.50;99.90;;;;;;7329163;32;20194;-57
2023/09/04 17:53:50;;;;;;;3.12;1.60;;;21.20;99.90;;;;;;7333550;32;20249;-57
2023/09/04 17:57:51;;;;;;;4.95;1.70;;;21.00;99.90;;;;;;7328744;32;20557;-56
2023/09/04 18:01:54;;;;;;;7.00;1.70;;;20.80;99.90;;;;;;7330841;32;20183;-57
2023/09/04 18:05:55;;;;;;;4.05;1.67;;;20.50;99.90;;;;;;7345344;32;20117;-57
2023/09/04 18:09:57;;;;;;;2.00;1.55;;;20.30;99.90;;;;;;7346643;32;20446;-57
2023/09/04 18:13:59;;;;;;;7.68;1.67;;;20.00;99.90;;;;;;7347065;32;20202;-58
2023/09/04 18:18:01;;;;;;;4.07;1.73;;;19.80;99.90;;;;;;7350895;32;20111;-57
2023/09/04 18:22:03;;;;;;;5.10;1.83;;;19.60;99.90;;;;;;7347395;32;20114;-56
2023/09/04 18:26:07;;;;;;;3.15;2.00;;;19.40;99.90;;;;;;7340409;32;20122;-56
2023/09/04 18:30:10;;;;;;;4.37;1.80;;;19.10;99.90;;;;;;7346223;32;20158;-55
2023/09/04 18:34:11;;;;;;;3.58;2.03;;;18.90;99.90;;;;;;7343276;32;20201;-56
2023/09/04 18:38:13;;;;;;;4.72;1.87;;;18.80;99.90;;;;;;7336226;32;20194;-56
2023/09/04 18:42:15;;;;;;;4.12;1.92;;;18.60;99.90;;;;;;7337032;32;20203;-56
2023/09/04 18:46:18;;;;;;;5.82;1.90;;;18.50;99.90;;;;;;7350360;32;20123;-56
2023/09/04 18:50:23;;;;;;;3.78;1.45;;;18.40;99.90;;;;;;7347596;32;20127;-56
2023/09/04 18:54:27;;;;;;;4.80;1.90;;;18.30;99.90;;;;;;7344549;32;20137;-56
2023/09/04 18:58:29;;;;;;;3.40;1.50;;;18.20;99.90;;;;;;7333434;32;20170;-57
2023/09/04 19:02:31;;;;;;;7.65;1.80;;;18.10;99.90;;;;;;7329282;32;21154;-56
2023/09/04 19:06:33;;;;;;;7.00;2.10;;;17.90;99.90;;;;;;7336301;32;20446;-56
2023/09/04 19:10:35;;;;;;;6.10;2.17;;;17.70;99.90;;;;;;7327888;32;20201;-57
2023/09/04 19:14:37;;;;;;;4.00;1.67;;;17.60;99.90;;;;;;7332927;32;20178;-57
2023/09/04 19:18:38;;;;;;;4.37;2.17;;;17.70;99.90;;;;;;7339263;32;20276;-56
2023/09/04 19:22:40;;;;;;;5.75;1.90;;;17.50;99.90;;;;;;7338798;32;20191;-56
2023/09/04 19:26:42;;;;;;;5.12;2.28;;;17.40;99.90;;;;;;7336329;32;20226;-57
2023/09/04 19:30:45;;;;;;;6.53;2.28;;;17.20;99.90;;;;;;7335306;32;20178;-56
2023/09/04 19:34:46;;;;;;;4.47;2.25;;;17.10;99.90;;;;;;7332657;32;20879;-57
2023/09/04 19:38:49;;;;;;;7.47;2.00;;;17.10;99.90;;;;;;7336180;32;20182;-57
2023/09/04 19:42:51;;;;;;;7.25;2.20;;;17.00;99.90;;;;;;7327917;32;20222;-57
2023/09/04 19:46:53;;;;;;;7.43;2.40;;;16.90;99.90;;;;;;7327184;32;20636;-57
2023/09/04 19:50:56;;;;;;;5.97;2.37;;;16.80;99.90;;;;;;7338461;32;20213;-56
2023/09/04 19:54:58;;;;;;;4.82;2.10;;;16.70;99.90;;;;;;7340587;32;20189;-56
2023/09/04 19:58:59;;;;;;;11.10;3.10;;;16.60;99.90;;;;;;7328080;32;20591;-56
2023/09/04 20:03:01;;;;;;;5.25;2.00;;;16.60;99.90;;;;;;7342672;32;20247;-57
2023/09/04 20:07:03;;;;;;;5.12;2.37;;;16.60;99.90;;;;;;7344241;32;20186;-56
2023/09/04 20:11:05;;;;;;;7.50;2.20;;;16.60;99.90;;;;;;7336383;32;20257;-56
2023/09/04 20:15:08;;;;;;;6.90;2.58;;;16.50;99.90;;;;;;7324073;32;20303;-56
2023/09/04 20:19:10;;;;;;;4.80;2.30;;;16.30;99.90;;;;;;7320927;32;20273;-56
2023/09/04 20:23:11;;;;;;;5.20;2.25;;;16.30;99.90;;;;;;7325082;32;20175;-56
2023/09/04 20:27:13;;;;;;;4.30;2.60;;;16.20;99.90;;;;;;7333705;32;20684;-56
2023/09/04 20:31:15;;;;;;;7.32;2.53;;;16.10;99.90;;;;;;7325880;32;20319;-55
2023/09/04 20:35:17;;;;;;;6.22;2.42;;;16.00;99.90;;;;;;7331276;32;20186;-56
2023/09/04 20:39:19;;;;;;;7.40;2.78;;;16.00;99.90;;;;;;7345781;32;20501;-56
2023/09/04 20:43:21;;;;;;;13.25;2.47;;;15.90;99.90;;;;;;7336502;32;20733;-56
2023/09/04 20:47:23;;;;;;;9.93;3.15;;;16.00;99.90;;;;;;7335765;32;20260;-56
2023/09/04 20:51:25;;;;;;;7.78;2.75;;;15.90;99.90;;;;;;7339010;32;20618;-56
2023/09/04 20:55:27;;;;;;;5.87;2.50;;;15.90;99.90;;;;;;7338344;32;20675;-55
2023/09/04 20:59:29;;;;;;;7.60;2.62;;;15.80;99.90;;;;;;7329014;32;20186;-57
2023/09/04 21:03:31;;;;;;;7.72;2.50;;;15.70;99.90;;;;;;7318393;32;20298;-56